Time;durP1;ratioP1;P1;durP2;ratioP2;P2;SDS_P1;SDS_P2;PMS_P1;PMS_P2;Temp;Humidity;BMP_temperature;BMP_pressure;BME280_temperature;BME280_humidity;BME280_pressure;Samples;Min_cycle;Max_cycle;Signal;HPM_P1;HPM_P2
2023/08/07 00:00:33;;;;;;;2.87;1.50;;;15.90;55.30;;;;;;20527;6835;336439;-75
2023/08/07 00:02:59;;;;;;;1.60;1.00;;;16.10;54.90;;;;;;20741;6837;117196;-70
2023/08/07 00:05:24;;;;;;;1.10;1.10;;;15.90;55.30;;;;;;20659;6837;119302;-70
2023/08/07 00:07:50;;;;;;;1.60;1.50;;;15.50;56.00;;;;;;20489;6839;283558;-72
2023/08/07 00:10:15;;;;;;;1.50;1.40;;;15.50;55.90;;;;;;20449;6854;280366;-72
2023/08/07 00:12:41;;;;;;;1.08;1.05;;;15.80;55.40;;;;;;20698;6839;117149;-73
2023/08/07 00:15:08;;;;;;;1.70;1.40;;;15.70;55.60;;;;;;20521;6839;285340;-69
2023/08/07 00:17:34;;;;;;;1.40;1.30;;;15.50;55.80;;;;;;20731;6839;117616;-71
2023/08/07 00:20:00;;;;;;;2.63;1.00;;;15.50;55.80;;;;;;20742;6835;117086;-70
2023/08/07 00:22:26;;;;;;;1.20;1.10;;;15.30;56.40;;;;;;20518;6839;308070;-72
2023/08/07 00:24:52;;;;;;;3.63;1.43;;;15.40;56.20;;;;;;20730;6835;117151;-70
2023/08/07 00:27:17;;;;;;;2.15;1.70;;;15.30;56.30;;;;;;20523;6839;279052;-72
2023/08/07 00:29:43;;;;;;;1.77;1.30;;;15.40;56.00;;;;;;20518;6839;294407;-69
2023/08/07 00:32:09;;;;;;;1.70;1.40;;;15.80;55.20;;;;;;20519;6837;288780;-71
2023/08/07 00:34:35;;;;;;;4.60;1.57;;;15.80;54.50;;;;;;20714;6839;117743;-72
2023/08/07 00:37:02;;;;;;;2.97;1.20;;;15.60;54.90;;;;;;20728;6839;121393;-71
2023/08/07 00:39:27;;;;;;;1.65;1.40;;;15.30;55.70;;;;;;20521;6839;281326;-72
2023/08/07 00:41:54;;;;;;;1.58;1.48;;;15.60;54.90;;;;;;20524;6839;277686;-71
2023/08/07 00:44:19;;;;;;;2.67;1.40;;;15.60;54.90;;;;;;20533;6834;302729;-72
2023/08/07 00:46:45;;;;;;;2.57;1.50;;;15.80;54.60;;;;;;20454;6854;278157;-70
2023/08/07 00:49:10;;;;;;;2.12;1.67;;;15.90;54.60;;;;;;20518;6839;278511;-71
2023/08/07 00:51:37;;;;;;;1.97;1.50;;;16.10;53.40;;;;;;20512;6839;341810;-70
2023/08/07 00:54:02;;;;;;;2.05;1.45;;;16.10;53.40;;;;;;20531;6834;336551;-71
2023/08/07 00:56:28;;;;;;;2.33;1.40;;;16.10;53.20;;;;;;20452;6854;337683;-71
2023/08/07 00:58:53;;;;;;;1.65;1.42;;;16.10;53.70;;;;;;20510;6839;277958;-69
2023/08/07 01:01:19;;;;;;;2.10;1.50;;;16.20;53.00;;;;;;20522;6839;308730;-71
2023/08/07 01:03:45;;;;;;;1.50;1.48;;;16.20;52.90;;;;;;20531;6834;277646;-71
2023/08/07 01:06:11;;;;;;;1.30;1.20;;;16.20;52.90;;;;;;20729;6839;117650;-71
2023/08/07 01:08:37;;;;;;;1.93;1.30;;;15.40;54.40;;;;;;20727;6835;117739;-71
2023/08/07 01:11:17;;;;;;;3.33;1.40;;;15.40;54.40;;;;;;20741;6835;117162;-71
2023/08/07 01:14:17;;;;;;;1.70;1.50;;;15.00;55.20;;;;;;20504;6839;277726;-71
2023/08/07 01:16:50;;;;;;;3.43;1.23;;;15.00;55.50;;;;;;20712;6835;120596;-70
2023/08/07 01:19:29;;;;;;;1.80;1.70;;;14.90;55.40;;;;;;20518;6835;339642;-71
2023/08/07 01:22:08;;;;;;;1.60;1.50;;;15.00;55.20;;;;;;20505;6839;341702;-71
2023/08/07 01:24:33;;;;;;;5.13;1.47;;;15.30;54.80;;;;;;20649;6854;117309;-71
2023/08/07 01:26:59;;;;;;;2.40;1.50;;;15.20;55.10;;;;;;20528;6839;277855;-71
2023/08/07 01:29:25;;;;;;;1.40;1.30;;;15.20;55.00;;;;;;20700;6839;117254;-72
2023/08/07 01:31:50;;;;;;;1.63;1.40;;;15.00;55.30;;;;;;20670;6854;117327;-71
2023/08/07 01:35:02;;;;;;;1.70;1.58;;;14.80;55.90;;;;;;20458;6854;338045;-71
2023/08/07 01:37:28;;;;;;;1.40;1.30;;;14.90;55.80;;;;;;20717;6839;120843;-72
2023/08/07 01:39:53;;;;;;;1.40;1.40;;;14.70;56.00;;;;;;20716;6839;117551;-69
2023/08/07 01:42:19;;;;;;;1.75;1.60;;;14.50;56.70;;;;;;20518;6833;341493;-71
2023/08/07 01:44:44;;;;;;;1.67;1.27;;;14.60;56.50;;;;;;20727;6834;122963;-70
2023/08/07 01:47:10;;;;;;;1.90;1.12;;;14.60;57.30;;;;;;20743;6834;117097;-71
2023/08/07 01:49:38;;;;;;;1.73;1.35;;;14.40;57.10;;;;;;20734;6839;117027;-72
2023/08/07 01:52:01;;;;;;;2.33;1.57;;;14.30;57.60;;;;;;20513;6839;308717;-71
2023/08/07 01:54:27;;;;;;;1.57;1.40;;;14.40;56.90;;;;;;20745;6834;116977;-72
2023/08/07 01:56:52;;;;;;;1.75;1.65;;;14.50;56.90;;;;;;20526;6834;284681;-71
2023/08/07 01:59:18;;;;;;;1.60;1.37;;;14.60;56.40;;;;;;20724;6839;117332;-72
2023/08/07 02:01:44;;;;;;;2.83;1.60;;;14.60;56.50;;;;;;20475;6854;308454;-72
2023/08/07 02:04:09;;;;;;;2.45;1.80;;;14.70;56.10;;;;;;20513;6839;307976;-70
2023/08/07 02:06:35;;;;;;;2.60;1.65;;;15.00;55.50;;;;;;20502;6839;283226;-71
2023/08/07 02:09:01;;;;;;;1.80;1.70;;;15.40;54.40;;;;;;20525;6839;278850;-71
2023/08/07 02:11:27;;;;;;;2.03;1.50;;;15.40;54.40;;;;;;20735;6837;117038;-72
2023/08/07 02:13:52;;;;;;;3.40;1.70;;;15.20;54.90;;;;;;20514;6839;307076;-72
2023/08/07 02:16:18;;;;;;;2.30;1.85;;;15.20;54.70;;;;;;20515;6839;337592;-72
2023/08/07 02:18:43;;;;;;;2.10;1.70;;;15.30;54.20;;;;;;20501;6839;312710;-72
2023/08/07 02:21:10;;;;;;;1.50;1.40;;;15.30;54.40;;;;;;20684;6854;123506;-71
2023/08/07 02:23:35;;;;;;;3.43;1.43;;;15.20;54.30;;;;;;20724;6839;117107;-72
2023/08/07 02:26:01;;;;;;;3.90;1.73;;;14.60;55.80;;;;;;20730;6839;117479;-71
2023/08/07 02:28:28;;;;;;;3.73;1.30;;;14.60;55.80;;;;;;20743;6835;116923;-71
2023/08/07 02:30:54;;;;;;;2.90;1.60;;;14.40;56.30;;;;;;20507;6835;307942;-72
2023/08/07 02:33:20;;;;;;;1.90;1.80;;;14.60;55.70;;;;;;20532;6835;279918;-71
2023/08/07 02:35:46;;;;;;;2.62;1.62;;;14.90;55.00;;;;;;20747;6835;117000;-70
2023/08/07 02:38:11;;;;;;;2.00;1.73;;;14.90;55.00;;;;;;20539;6835;284028;-72
2023/08/07 02:40:38;;;;;;;1.83;1.60;;;15.20;54.00;;;;;;20518;6835;278982;-72
2023/08/07 02:43:03;;;;;;;1.57;1.47;;;15.20;54.00;;;;;;20749;6835;118034;-71
2023/08/07 02:45:29;;;;;;;2.30;1.85;;;15.10;54.40;;;;;;20531;6835;284698;-71
2023/08/07 02:47:55;;;;;;;1.98;1.58;;;15.00;54.20;;;;;;20751;6835;116995;-71
2023/08/07 02:50:21;;;;;;;1.40;1.30;;;15.00;54.20;;;;;;20733;6839;117416;-70
2023/08/07 02:52:46;;;;;;;1.37;1.30;;;14.80;55.00;;;;;;20667;6854;144387;-72
2023/08/07 02:55:12;;;;;;;1.37;1.27;;;14.60;55.60;;;;;;20733;6838;123002;-72
2023/08/07 02:57:37;;;;;;;1.77;1.30;;;14.40;55.90;;;;;;20722;6839;117070;-70
2023/08/07 03:00:03;;;;;;;2.28;1.70;;;14.30;56.30;;;;;;20517;6839;337166;-70
2023/08/07 03:02:29;;;;;;;1.73;1.37;;;14.50;55.10;;;;;;20656;6854;117876;-72
2023/08/07 03:04:54;;;;;;;2.40;1.60;;;14.60;55.30;;;;;;20494;6839;287292;-71
2023/08/07 03:07:20;;;;;;;2.50;1.73;;;14.80;54.40;;;;;;20533;6839;278187;-72
2023/08/07 03:09:46;;;;;;;2.10;1.90;;;15.10;53.80;;;;;;20530;6839;311929;-71
2023/08/07 03:12:11;;;;;;;2.03;1.60;;;15.40;53.00;;;;;;20535;6834;278159;-71
2023/08/07 03:14:37;;;;;;;3.17;1.50;;;15.60;52.40;;;;;;20705;6839;119694;-73
2023/08/07 03:17:02;;;;;;;2.70;1.70;;;15.40;53.00;;;;;;20472;6854;342947;-72
2023/08/07 03:19:28;;;;;;;2.17;1.73;;;15.40;52.50;;;;;;20729;6839;117006;-70
2023/08/07 03:21:53;;;;;;;2.37;1.80;;;15.20;53.10;;;;;;20523;6839;337639;-69
2023/08/07 03:24:19;;;;;;;3.58;1.60;;;15.30;52.70;;;;;;20740;6834;117037;-71
2023/08/07 03:26:47;;;;;;;2.10;1.80;;;15.10;53.10;;;;;;20729;6834;144728;-70
2023/08/07 03:29:10;;;;;;;2.83;1.60;;;14.80;53.70;;;;;;20727;6839;117621;-69
2023/08/07 03:31:36;;;;;;;1.77;1.52;;;14.60;55.00;;;;;;20734;6839;119403;-71
2023/08/07 03:34:01;;;;;;;2.67;1.90;;;14.40;54.70;;;;;;20476;6854;308184;-71
2023/08/07 03:36:27;;;;;;;2.30;1.60;;;14.60;53.90;;;;;;20735;6839;117636;-70
2023/08/07 03:38:53;;;;;;;2.05;1.70;;;14.70;54.10;;;;;;20508;6839;285630;-72
2023/08/07 03:41:19;;;;;;;2.47;1.77;;;14.80;53.30;;;;;;20523;6839;316415;-69
2023/08/07 03:43:45;;;;;;;3.55;1.87;;;15.20;52.70;;;;;;20518;6837;307494;-71
2023/08/07 03:46:10;;;;;;;2.73;1.80;;;15.40;52.10;;;;;;20525;6837;282569;-71
2023/08/07 03:48:36;;;;;;;3.40;1.87;;;15.60;51.50;;;;;;20497;6839;299287;-71
2023/08/07 03:51:01;;;;;;;2.37;1.80;;;15.70;51.20;;;;;;20519;6839;337952;-70
2023/08/07 03:53:27;;;;;;;4.05;1.73;;;15.80;51.20;;;;;;20663;6854;118394;-70
2023/08/07 03:55:52;;;;;;;3.75;1.95;;;15.50;51.90;;;;;;20519;6839;312086;-70
2023/08/07 03:58:18;;;;;;;1.47;1.30;;;15.40;51.80;;;;;;20732;6839;117079;-69
2023/08/07 04:00:45;;;;;;;1.70;1.60;;;15.20;52.30;;;;;;20449;6854;342096;-69
2023/08/07 04:03:10;;;;;;;2.40;1.50;;;15.30;52.20;;;;;;20734;6839;117329;-69
2023/08/07 04:05:36;;;;;;;2.00;1.77;;;15.20;52.60;;;;;;20519;6838;282512;-70
2023/08/07 04:08:02;;;;;;;2.35;2.15;;;15.30;52.30;;;;;;20527;6839;327852;-69
2023/08/07 04:10:27;;;;;;;1.80;1.70;;;15.40;51.70;;;;;;20530;6839;282980;-68
2023/08/07 04:12:53;;;;;;;2.45;1.70;;;15.60;51.30;;;;;;20503;6839;307342;-69
2023/08/07 04:15:18;;;;;;;2.15;1.70;;;15.80;51.10;;;;;;20522;6839;294540;-69
2023/08/07 04:17:44;;;;;;;1.50;1.40;;;15.80;51.10;;;;;;20728;6839;121264;-69
2023/08/07 04:20:10;;;;;;;2.92;1.80;;;15.60;51.60;;;;;;20739;6839;117435;-69
2023/08/07 04:22:36;;;;;;;3.37;1.77;;;14.90;53.20;;;;;;20664;6854;119864;-69
2023/08/07 04:25:01;;;;;;;2.10;1.87;;;14.90;53.20;;;;;;20734;6839;117669;-69
2023/08/07 04:27:27;;;;;;;1.95;1.30;;;14.60;53.60;;;;;;20733;6839;117185;-68
2023/08/07 04:29:52;;;;;;;1.42;1.37;;;14.50;54.20;;;;;;20716;6854;117187;-69
2023/08/07 04:32:18;;;;;;;3.50;1.47;;;14.30;54.60;;;;;;20804;6839;119284;-68
2023/08/07 04:34:44;;;;;;;2.28;1.37;;;14.20;55.00;;;;;;20693;6839;140261;-68
2023/08/07 04:37:09;;;;;;;2.27;1.60;;;14.10;55.90;;;;;;20596;6839;307499;-69
2023/08/07 04:39:36;;;;;;;1.77;1.57;;;14.30;55.10;;;;;;20792;6839;117424;-68
2023/08/07 04:42:01;;;;;;;2.03;1.83;;;14.50;54.60;;;;;;20543;6839;308041;-69
2023/08/07 04:44:27;;;;;;;3.12;1.95;;;14.50;54.60;;;;;;20524;6839;278591;-69
2023/08/07 04:46:52;;;;;;;2.10;1.90;;;14.80;54.10;;;;;;20462;6854;341708;-69
2023/08/07 04:49:18;;;;;;;3.47;1.60;;;15.00;53.60;;;;;;20732;6839;117156;-68
2023/08/07 04:51:43;;;;;;;3.20;1.95;;;14.90;53.90;;;;;;20526;6839;337129;-69
2023/08/07 04:54:09;;;;;;;4.70;2.00;;;14.90;53.90;;;;;;20732;6839;117096;-68
2023/08/07 04:56:34;;;;;;;2.12;1.98;;;14.70;54.00;;;;;;20506;6839;308085;-69
2023/08/07 04:59:01;;;;;;;2.03;1.60;;;14.80;54.10;;;;;;20690;6854;117530;-69
2023/08/07 05:01:25;;;;;;;3.13;1.63;;;14.70;54.40;;;;;;20729;6839;117032;-68
2023/08/07 05:03:51;;;;;;;2.67;2.10;;;14.40;54.90;;;;;;20473;6854;338114;-69
2023/08/07 05:06:17;;;;;;;4.53;1.80;;;14.50;54.70;;;;;;20724;6839;117169;-70
2023/08/07 05:08:42;;;;;;;2.17;1.80;;;14.50;54.90;;;;;;20503;6839;306899;-69
2023/08/07 05:11:08;;;;;;;2.37;2.00;;;14.90;54.10;;;;;;20518;6839;279576;-69
2023/08/07 05:13:34;;;;;;;2.30;1.70;;;14.90;54.10;;;;;;20722;6839;117504;-69
2023/08/07 05:16:00;;;;;;;1.90;1.70;;;14.80;54.20;;;;;;20725;6839;117566;-69
2023/08/07 05:18:25;;;;;;;4.12;1.92;;;14.60;54.80;;;;;;20522;6838;308015;-69
2023/08/07 05:20:51;;;;;;;4.10;1.97;;;14.70;54.20;;;;;;20511;6839;278545;-69
2023/08/07 05:23:16;;;;;;;2.30;2.10;;;14.90;53.60;;;;;;20523;6839;318593;-69
2023/08/07 05:25:42;;;;;;;1.80;1.70;;;15.10;52.90;;;;;;20742;6839;121423;-69
2023/08/07 05:28:08;;;;;;;5.12;2.10;;;15.00;53.40;;;;;;20532;6834;345345;-68
2023/08/07 05:30:34;;;;;;;3.83;1.77;;;14.90;53.30;;;;;;20719;6839;124395;-69
2023/08/07 05:33:00;;;;;;;2.37;1.73;;;14.80;53.80;;;;;;20690;6854;117296;-69
2023/08/07 05:35:25;;;;;;;1.48;1.37;;;14.60;54.50;;;;;;20731;6839;117162;-69
2023/08/07 05:37:51;;;;;;;2.40;1.70;;;14.40;55.00;;;;;;20733;6839;117077;-69
2023/08/07 05:40:16;;;;;;;3.20;1.60;;;14.20;55.40;;;;;;20729;6839;117086;-69
2023/08/07 05:42:42;;;;;;;2.60;1.73;;;14.20;55.80;;;;;;20713;6839;117517;-69
2023/08/07 05:45:08;;;;;;;5.12;1.50;;;14.10;56.00;;;;;;20748;6834;117681;-69
2023/08/07 05:47:34;;;;;;;2.47;1.83;;;14.10;56.30;;;;;;20747;6834;117008;-68
2023/08/07 05:50:00;;;;;;;1.60;1.50;;;14.00;56.40;;;;;;20746;6834;117826;-69
2023/08/07 05:52:25;;;;;;;2.50;1.90;;;14.00;56.60;;;;;;20510;6839;307949;-69
2023/08/07 05:54:53;;;;;;;1.63;1.40;;;14.60;55.90;;;;;;20670;6854;117412;-69
2023/08/07 05:57:18;;;;;;;2.30;2.03;;;14.50;55.80;;;;;;20514;6839;311590;-69
2023/08/07 05:59:44;;;;;;;2.60;1.70;;;14.80;55.40;;;;;;20732;6839;117601;-69
2023/08/07 06:02:11;;;;;;;3.60;1.90;;;15.00;55.30;;;;;;20745;6835;117041;-69
2023/08/07 06:04:35;;;;;;;3.85;2.35;;;14.90;55.60;;;;;;20493;6839;282710;-69
2023/08/07 06:07:01;;;;;;;1.93;1.57;;;15.10;55.00;;;;;;20727;6839;117335;-69
2023/08/07 06:09:26;;;;;;;2.70;1.62;;;15.20;55.10;;;;;;20728;6839;117410;-69
2023/08/07 06:11:52;;;;;;;2.03;1.70;;;15.00;55.30;;;;;;20687;6854;117391;-69
2023/08/07 06:14:18;;;;;;;3.03;1.80;;;14.80;55.80;;;;;;20727;6839;117630;-69
2023/08/07 06:16:44;;;;;;;2.12;1.98;;;14.90;55.90;;;;;;20487;6839;337055;-69
2023/08/07 06:19:09;;;;;;;2.85;1.77;;;15.10;55.20;;;;;;20739;6835;117127;-70
2023/08/07 06:21:35;;;;;;;1.92;1.83;;;15.20;55.50;;;;;;20741;6835;117051;-69
2023/08/07 06:24:01;;;;;;;1.80;1.70;;;15.10;55.40;;;;;;20721;6835;117516;-70
2023/08/07 06:26:27;;;;;;;2.20;2.00;;;15.10;55.80;;;;;;20502;6839;278815;-70
2023/08/07 06:28:52;;;;;;;2.40;2.20;;;15.40;55.30;;;;;;20480;6844;305649;-70
2023/08/07 06:31:18;;;;;;;2.35;2.10;;;15.80;54.50;;;;;;20527;6834;306905;-69
2023/08/07 06:33:44;;;;;;;1.65;1.55;;;16.10;53.80;;;;;;20746;6834;117079;-70
2023/08/07 06:36:10;;;;;;;2.47;2.00;;;16.10;53.80;;;;;;20744;6834;117002;-69
2023/08/07 06:38:35;;;;;;;1.50;1.40;;;15.90;54.30;;;;;;20733;6834;120836;-70
2023/08/07 06:41:01;;;;;;;2.55;2.03;;;15.70;54.70;;;;;;20529;6834;281826;-69
2023/08/07 06:43:26;;;;;;;1.90;1.80;;;15.90;54.60;;;;;;20518;6834;307926;-70
2023/08/07 06:45:52;;;;;;;2.70;1.70;;;16.30;53.60;;;;;;20715;6839;117078;-69
2023/08/07 06:48:18;;;;;;;1.53;1.43;;;16.10;54.10;;;;;;20721;6834;117050;-69
2023/08/07 06:50:44;;;;;;;1.67;1.57;;;16.10;54.10;;;;;;20709;6834;117114;-70
2023/08/07 06:53:09;;;;;;;2.63;1.97;;;16.00;54.50;;;;;;20707;6839;117182;-69
2023/08/07 06:55:35;;;;;;;2.72;1.90;;;15.80;54.70;;;;;;20528;6834;340654;-70
2023/08/07 06:58:01;;;;;;;3.60;2.17;;;16.50;53.70;;;;;;20530;6834;307116;-69
2023/08/07 07:00:27;;;;;;;2.70;1.97;;;16.40;53.50;;;;;;20536;6834;312101;-70
2023/08/07 07:02:53;;;;;;;2.45;1.80;;;16.80;52.90;;;;;;20737;6834;120983;-70
2023/08/07 07:05:18;;;;;;;3.90;1.70;;;16.80;53.30;;;;;;20738;6839;118230;-68
2023/08/07 07:07:43;;;;;;;1.92;1.83;;;16.60;53.80;;;;;;20470;6854;310879;-70
2023/08/07 07:10:10;;;;;;;2.65;1.95;;;17.10;52.80;;;;;;20497;6839;307996;-70
2023/08/07 07:12:36;;;;;;;3.53;1.95;;;17.40;52.10;;;;;;20484;6839;337101;-68
2023/08/07 07:15:02;;;;;;;2.63;1.87;;;17.40;52.10;;;;;;20721;6835;117325;-70
2023/08/07 07:17:27;;;;;;;2.70;1.80;;;17.30;52.40;;;;;;20726;6835;117906;-69
2023/08/07 07:19:53;;;;;;;2.00;1.67;;;17.20;52.90;;;;;;20714;6839;117520;-69
2023/08/07 07:22:18;;;;;;;2.20;2.00;;;17.00;53.30;;;;;;20522;6839;282897;-69
2023/08/07 07:24:45;;;;;;;1.98;1.87;;;17.40;52.80;;;;;;20727;6835;118683;-68
2023/08/07 07:27:10;;;;;;;2.60;1.87;;;17.30;52.70;;;;;;20528;6835;340349;-69
2023/08/07 07:29:36;;;;;;;2.33;2.00;;;17.70;52.80;;;;;;20534;6835;339158;-69
2023/08/07 07:32:02;;;;;;;3.25;1.80;;;18.10;51.40;;;;;;20746;6835;117579;-69
2023/08/07 07:34:28;;;;;;;2.33;1.50;;;18.10;51.40;;;;;;20716;6839;117636;-69
2023/08/07 07:36:54;;;;;;;3.97;1.60;;;18.00;52.00;;;;;;20644;6854;117579;-68
2023/08/07 07:39:19;;;;;;;2.25;2.00;;;18.00;52.70;;;;;;20496;6839;311027;-69
2023/08/07 07:41:45;;;;;;;2.03;1.93;;;18.90;50.00;;;;;;20505;6838;278478;-69
2023/08/07 07:44:11;;;;;;;2.08;1.87;;;18.80;50.00;;;;;;20502;6839;308422;-69
2023/08/07 07:46:36;;;;;;;2.20;2.00;;;19.40;48.80;;;;;;20500;6839;312494;-69
2023/08/07 07:49:03;;;;;;;2.33;1.60;;;19.90;48.20;;;;;;20750;6834;117145;-70
2023/08/07 07:51:29;;;;;;;1.67;1.57;;;20.00;48.70;;;;;;20727;6839;117144;-69
2023/08/07 07:53:53;;;;;;;2.10;1.90;;;19.90;49.00;;;;;;20470;6854;283102;-69
2023/08/07 07:56:19;;;;;;;1.98;1.80;;;20.10;46.90;;;;;;20524;6839;336675;-69
2023/08/07 07:58:44;;;;;;;1.70;1.60;;;20.50;46.30;;;;;;20725;6839;117195;-69
2023/08/07 08:01:10;;;;;;;1.90;1.80;;;20.60;46.60;;;;;;20520;6839;312633;-69
2023/08/07 08:03:35;;;;;;;3.03;1.83;;;20.70;45.30;;;;;;20752;6834;117041;-69
2023/08/07 08:06:01;;;;;;;1.47;1.37;;;20.60;45.90;;;;;;20727;6839;117069;-69
2023/08/07 08:08:26;;;;;;;1.70;1.60;;;20.50;46.60;;;;;;20471;6854;312900;-70
2023/08/07 08:10:53;;;;;;;1.80;1.33;;;20.70;44.70;;;;;;20710;6839;117505;-68
2023/08/07 08:13:18;;;;;;;2.10;1.60;;;20.60;43.90;;;;;;20686;6854;117960;-69
2023/08/07 08:15:44;;;;;;;1.47;1.37;;;20.60;44.80;;;;;;20726;6839;123329;-68
2023/08/07 08:18:09;;;;;;;2.10;1.58;;;20.50;44.80;;;;;;20516;6839;292064;-68
2023/08/07 08:20:35;;;;;;;1.95;1.80;;;20.60;41.00;;;;;;20502;6839;308398;-69
2023/08/07 08:23:01;;;;;;;1.60;1.50;;;20.70;41.50;;;;;;20740;6835;117688;-69
2023/08/07 08:25:27;;;;;;;3.93;1.57;;;20.20;43.20;;;;;;20731;6839;119242;-69
2023/08/07 08:27:52;;;;;;;1.77;1.67;;;20.20;43.20;;;;;;20730;6839;117178;-69
2023/08/07 08:30:18;;;;;;;1.60;1.50;;;20.00;44.20;;;;;;20728;6839;117018;-68
2023/08/07 08:32:44;;;;;;;1.73;1.63;;;20.00;45.20;;;;;;20520;6835;278486;-69
2023/08/07 08:35:09;;;;;;;2.67;1.70;;;20.40;42.80;;;;;;20536;6835;307281;-69
2023/08/07 08:37:35;;;;;;;1.27;1.27;;;20.90;42.00;;;;;;20734;6839;117174;-69
2023/08/07 08:40:00;;;;;;;1.70;1.50;;;21.20;42.50;;;;;;20687;6854;117228;-70
2023/08/07 08:42:26;;;;;;;1.87;1.77;;;21.10;42.60;;;;;;20520;6839;307143;-69
2023/08/07 08:44:52;;;;;;;2.27;1.30;;;21.80;39.10;;;;;;20507;6839;278659;-68
2023/08/07 08:47:18;;;;;;;1.57;1.10;;;21.80;39.10;;;;;;20731;6839;117764;-69
2023/08/07 08:49:47;;;;;;;1.42;1.30;;;21.90;39.60;;;;;;20749;6835;117006;-69
2023/08/07 08:52:12;;;;;;;1.60;1.50;;;21.60;40.00;;;;;;20684;6852;117244;-69
2023/08/07 08:54:37;;;;;;;1.27;1.27;;;21.40;40.60;;;;;;20706;6839;117128;-69
2023/08/07 08:57:03;;;;;;;2.33;1.30;;;21.20;41.30;;;;;;20520;6839;307958;-69
2023/08/07 08:59:29;;;;;;;1.07;1.07;;;21.40;38.70;;;;;;20686;6854;117654;-69
2023/08/07 09:01:55;;;;;;;1.50;1.40;;;21.70;40.80;;;;;;20732;6839;117456;-69
2023/08/07 09:04:21;;;;;;;1.20;1.20;;;21.60;40.70;;;;;;20729;6839;117157;-69
2023/08/07 09:06:47;;;;;;;1.17;1.17;;;21.70;41.20;;;;;;20511;6834;310803;-69
2023/08/07 09:09:13;;;;;;;1.50;1.40;;;22.40;38.80;;;;;;20747;6834;117183;-69
2023/08/07 09:11:38;;;;;;;1.17;1.10;;;22.30;38.70;;;;;;20725;6839;117190;-69
2023/08/07 09:14:04;;;;;;;1.62;1.33;;;22.30;39.60;;;;;;20519;6839;313637;-68
2023/08/07 09:16:29;;;;;;;1.60;1.50;;;22.50;35.80;;;;;;20537;6834;302768;-69
2023/08/07 09:18:55;;;;;;;1.50;1.40;;;22.70;35.90;;;;;;20495;6839;318296;-68
2023/08/07 09:21:20;;;;;;;1.40;1.20;;;22.90;35.90;;;;;;20714;6845;123981;-70
2023/08/07 09:23:47;;;;;;;1.43;1.20;;;22.70;37.50;;;;;;20744;6834;117073;-70
2023/08/07 09:26:12;;;;;;;1.90;1.30;;;22.70;37.50;;;;;;20534;6834;336902;-69
2023/08/07 09:28:38;;;;;;;1.12;1.12;;;22.90;34.80;;;;;;20729;6834;122986;-69
2023/08/07 09:31:03;;;;;;;1.53;1.43;;;22.80;35.90;;;;;;20750;6835;117676;-69
2023/08/07 09:33:30;;;;;;;1.48;1.40;;;22.60;37.10;;;;;;20746;6835;117061;-69
2023/08/07 09:35:58;;;;;;;1.50;1.40;;;22.30;37.90;;;;;;20517;6839;282923;-69
2023/08/07 09:38:25;;;;;;;1.53;1.43;;;22.50;36.20;;;;;;20749;6835;117998;-70
2023/08/07 09:40:51;;;;;;;4.40;1.13;;;22.70;38.00;;;;;;20689;6839;141183;-69
2023/08/07 09:43:20;;;;;;;1.17;1.17;;;22.70;38.00;;;;;;20689;6854;117409;-69
2023/08/07 09:45:45;;;;;;;1.33;1.30;;;22.60;37.70;;;;;;20515;6839;278031;-69
2023/08/07 09:48:11;;;;;;;1.40;1.30;;;22.70;36.00;;;;;;20522;6839;307437;-69
2023/08/07 09:50:36;;;;;;;1.80;1.70;;;22.90;35.80;;;;;;20713;6839;117279;-69
2023/08/07 09:53:03;;;;;;;1.60;1.57;;;22.70;38.00;;;;;;20722;6839;117189;-69
2023/08/07 09:55:28;;;;;;;1.17;1.07;;;22.70;38.00;;;;;;20733;6839;117638;-69
2023/08/07 09:57:54;;;;;;;1.20;1.20;;;22.40;38.40;;;;;;20730;6839;117629;-69
2023/08/07 10:00:19;;;;;;;2.00;1.80;;;22.20;38.50;;;;;;20746;6835;116987;-69
2023/08/07 10:02:48;;;;;;;1.65;1.55;;;22.10;38.90;;;;;;20503;6839;280905;-69
2023/08/07 10:05:13;;;;;;;1.20;1.10;;;22.20;36.20;;;;;;20747;6833;117614;-68
2023/08/07 10:07:40;;;;;;;1.17;1.07;;;21.90;37.40;;;;;;20730;6839;122862;-69
2023/08/07 10:10:09;;;;;;;1.20;1.20;;;21.90;38.10;;;;;;20746;6834;117405;-70
2023/08/07 10:12:34;;;;;;;1.25;1.25;;;21.80;38.10;;;;;;20505;6839;307480;-69
2023/08/07 10:15:00;;;;;;;1.30;1.20;;;21.90;35.80;;;;;;20767;6829;117270;-69
2023/08/07 10:17:25;;;;;;;1.23;1.17;;;22.00;37.20;;;;;;20766;6829;117546;-70
2023/08/07 10:19:51;;;;;;;1.87;1.45;;;22.10;38.30;;;;;;20550;6829;307368;-69
2023/08/07 10:22:16;;;;;;;1.27;1.27;;;22.40;37.00;;;;;;20766;6829;117065;-70
2023/08/07 10:24:42;;;;;;;1.60;1.40;;;22.50;37.10;;;;;;20494;6839;308443;-69
2023/08/07 10:27:08;;;;;;;1.15;1.15;;;22.70;35.80;;;;;;20742;6834;117218;-70
2023/08/07 10:29:33;;;;;;;1.30;1.20;;;22.80;36.40;;;;;;20510;6839;307401;-69
2023/08/07 10:31:59;;;;;;;1.37;1.37;;;22.90;34.70;;;;;;20742;6834;117438;-69
2023/08/07 10:34:24;;;;;;;3.00;1.50;;;22.80;35.80;;;;;;20518;6839;312527;-69
2023/08/07 10:36:50;;;;;;;1.67;1.40;;;22.80;36.10;;;;;;20726;6834;117894;-70
2023/08/07 10:39:16;;;;;;;1.60;1.40;;;22.80;37.00;;;;;;20522;6839;312401;-70
2023/08/07 10:41:41;;;;;;;1.63;1.27;;;22.90;34.90;;;;;;20729;6839;117121;-69
2023/08/07 10:44:26;;;;;;;1.60;1.50;;;22.80;35.80;;;;;;20519;6839;278570;-70
2023/08/07 10:46:55;;;;;;;1.50;1.40;;;22.80;34.00;;;;;;20647;6854;117423;-69
2023/08/07 10:49:34;;;;;;;1.92;1.42;;;22.70;35.00;;;;;;20520;6839;307777;-69
2023/08/07 10:52:10;;;;;;;1.50;1.40;;;22.70;35.00;;;;;;20520;6839;305609;-68
2023/08/07 10:54:46;;;;;;;1.27;1.23;;;22.90;34.20;;;;;;20710;6839;157578;-70
2023/08/07 10:57:13;;;;;;;1.48;1.37;;;22.60;33.90;;;;;;20515;6839;313321;-70
2023/08/07 10:59:38;;;;;;;2.00;1.40;;;22.60;34.40;;;;;;20531;6835;283241;-69
2023/08/07 11:02:03;;;;;;;1.73;1.62;;;22.70;34.30;;;;;;20735;6839;123396;-69
2023/08/07 11:04:29;;;;;;;1.40;1.30;;;22.60;35.70;;;;;;20674;6854;117161;-69
2023/08/07 11:06:55;;;;;;;1.40;1.30;;;22.40;36.60;;;;;;20704;6839;117419;-69
2023/08/07 11:09:20;;;;;;;1.50;1.40;;;22.40;37.40;;;;;;20530;6839;297479;-71
2023/08/07 11:11:46;;;;;;;2.40;1.40;;;22.70;35.40;;;;;;20732;6839;117204;-69
2023/08/07 11:14:11;;;;;;;1.30;1.20;;;22.70;35.90;;;;;;20724;6839;117227;-70
2023/08/07 11:16:37;;;;;;;1.17;1.17;;;22.40;36.00;;;;;;20640;6853;117553;-70
2023/08/07 11:19:03;;;;;;;1.60;1.50;;;21.80;36.60;;;;;;20738;6839;117288;-68
2023/08/07 11:21:29;;;;;;;1.20;1.10;;;21.80;36.60;;;;;;20732;6839;117146;-68
2023/08/07 11:23:54;;;;;;;1.80;1.45;;;21.50;36.90;;;;;;20513;6839;341051;-69
2023/08/07 11:26:21;;;;;;;1.53;1.27;;;21.70;35.40;;;;;;20734;6839;122887;-70
2023/08/07 11:28:45;;;;;;;1.67;1.50;;;21.70;35.90;;;;;;20450;6854;283315;-66
2023/08/07 11:31:11;;;;;;;1.48;1.40;;;21.90;35.40;;;;;;20526;6839;279042;-69
2023/08/07 11:33:37;;;;;;;1.93;1.40;;;22.60;34.30;;;;;;20538;6834;277489;-69
2023/08/07 11:36:03;;;;;;;1.60;1.50;;;22.50;34.20;;;;;;20748;6834;117550;-69
2023/08/07 11:38:29;;;;;;;1.70;1.42;;;22.40;34.90;;;;;;20505;6839;306977;-69
2023/08/07 11:40:54;;;;;;;1.27;1.27;;;22.40;35.10;;;;;;20726;6834;121773;-69
2023/08/07 11:43:20;;;;;;;1.90;1.70;;;22.10;35.80;;;;;;20517;6839;278539;-69
2023/08/07 11:45:46;;;;;;;2.12;2.03;;;22.30;35.00;;;;;;20472;6854;329437;-68
2023/08/07 11:48:12;;;;;;;1.80;1.70;;;22.30;35.00;;;;;;20738;6839;117521;-69
2023/08/07 11:50:38;;;;;;;1.77;1.57;;;22.00;36.50;;;;;;20716;6839;117998;-69
2023/08/07 11:53:03;;;;;;;1.90;1.80;;;22.00;36.60;;;;;;20535;6835;307058;-69
2023/08/07 11:55:30;;;;;;;1.77;1.63;;;22.10;35.90;;;;;;20733;6839;117660;-69
2023/08/07 11:57:55;;;;;;;2.10;2.00;;;22.00;36.40;;;;;;20689;6854;117148;-69
2023/08/07 12:00:22;;;;;;;2.20;1.90;;;21.40;37.40;;;;;;20736;6839;117508;-69
2023/08/07 12:02:48;;;;;;;2.00;1.80;;;21.40;36.90;;;;;;20699;6839;118097;-70
2023/08/07 12:05:14;;;;;;;2.07;1.97;;;21.10;37.60;;;;;;20689;6854;117394;-70
2023/08/07 12:07:41;;;;;;;1.73;1.52;;;21.20;37.30;;;;;;20517;6839;278900;-71
2023/08/07 12:10:06;;;;;;;1.58;1.48;;;21.20;36.60;;;;;;20517;6839;338258;-70
2023/08/07 12:12:32;;;;;;;2.23;1.70;;;21.60;36.00;;;;;;20513;6839;337459;-69
2023/08/07 12:14:57;;;;;;;2.00;1.90;;;21.70;36.40;;;;;;20523;6835;278501;-70
2023/08/07 12:17:23;;;;;;;2.23;2.03;;;21.90;36.60;;;;;;20742;6839;117617;-69
2023/08/07 12:19:48;;;;;;;2.33;2.23;;;21.70;36.80;;;;;;20540;6835;307026;-69
2023/08/07 12:22:14;;;;;;;1.70;1.60;;;21.50;35.80;;;;;;20727;6839;117657;-69
2023/08/07 12:24:40;;;;;;;1.80;1.70;;;21.30;36.60;;;;;;20431;6854;318622;-69
2023/08/07 12:27:05;;;;;;;1.70;1.60;;;21.20;36.50;;;;;;20523;6837;283041;-69
2023/08/07 12:29:31;;;;;;;2.00;1.50;;;21.30;36.40;;;;;;20519;6839;311783;-69